Andrews, Texas
Current Conditions -  °F | °C
As of 2:15 AM on Sunday 21 Dec 2014 (Local Time) from KE11 Reporting Station
Haze Haze  
Wind Chill:   Ceiling: 300
Heat Index:   Visibility: 2mi
Dew Point:   Wind: 13mph
Humidity: 100%   Direction: 200°SSW
Pressure: 30"   Gusts: NA
Location:  32.32°N, 102.54°W
Report Text: KE11 210815Z AUTO 20011KT 2SM BR OVC003 06/06 A3000 RMK AO2 T00560056
Loading
Personal Weather Stations






























Interactive Weather Map New forecast layout! Learn more

10-Day Weather Forecast

Advertisements
Track Severe Weather on mobile